createdAt,value
2022-09-01T00:00:30.763Z,13.27
2022-09-01T00:02:59.218Z,13.07
2022-09-01T00:05:27.387Z,13.03
2022-09-01T00:07:55.472Z,13.07
2022-09-01T00:10:23.845Z,13.03
2022-09-01T00:12:51.924Z,13.03
2022-09-01T00:15:19.975Z,13.00
2022-09-01T00:17:49.685Z,12.82
2022-09-01T00:20:20.510Z,12.72
2022-09-01T00:22:49.239Z,12.65
2022-09-01T00:25:20.229Z,12.60
2022-09-01T00:27:49.397Z,12.55
2022-09-01T00:30:17.726Z,12.51
2022-09-01T00:32:46.967Z,12.48
2022-09-01T00:35:18.610Z,12.54
2022-09-01T00:37:46.966Z,12.51
2022-09-01T00:40:17.842Z,12.47
2022-09-01T00:42:46.192Z,12.51
2022-09-01T00:45:14.565Z,12.47
2022-09-01T00:47:43.879Z,12.37
2022-09-01T00:50:14.743Z,12.27
2022-09-01T00:52:48.701Z,12.22
2022-09-01T00:55:19.295Z,12.23
2022-09-01T00:57:48.001Z,12.20
2022-09-01T01:00:20.248Z,12.02
2022-09-01T01:02:50.234Z,11.91
2022-09-01T01:05:18.655Z,12.05
2022-09-01T01:07:48.158Z,12.00
2022-09-01T01:10:20.778Z,12.06
2022-09-01T01:12:51.884Z,11.95
2022-09-01T01:15:20.624Z,12.02
2022-09-01T01:17:48.627Z,11.89
2022-09-01T01:20:48.032Z,11.92
2022-09-01T01:23:22.852Z,12.08
2022-09-01T01:25:54.995Z,11.86
2022-09-01T01:28:28.257Z,11.79
2022-09-01T01:30:59.380Z,11.86
2022-09-01T01:33:32.649Z,11.95
2022-09-01T01:36:02.523Z,12.02
2022-09-01T01:38:31.250Z,12.09
2022-09-01T01:41:01.688Z,12.02
2022-09-01T01:43:30.248Z,11.93
2022-09-01T01:46:02.750Z,11.75
2022-09-01T01:48:39.497Z,11.71
2022-09-01T01:51:09.134Z,11.92
2022-09-01T01:53:37.950Z,11.70
2022-09-01T01:56:09.077Z,11.74
2022-09-01T01:58:37.815Z,11.86
2022-09-01T02:01:11.899Z,11.72
2022-09-01T02:03:40.506Z,11.88
2022-09-01T02:06:12.099Z,11.78
2022-09-01T02:08:42.323Z,11.61
2022-09-01T02:11:13.317Z,11.63
2022-09-01T02:13:41.446Z,11.51
2022-09-01T02:16:13.240Z,11.53
2022-09-01T02:18:48.189Z,11.40
2022-09-01T02:21:20.312Z,11.36
2022-09-01T02:23:50.779Z,11.40
2022-09-01T02:26:25.088Z,11.36
2022-09-01T02:28:55.982Z,11.51
2022-09-01T02:31:32.048Z,11.44
2022-09-01T02:34:01.973Z,11.34
2022-09-01T02:36:32.883Z,11.26
2022-09-01T02:39:02.118Z,11.29
2022-09-01T02:41:34.659Z,11.16
2022-09-01T02:44:04.127Z,11.09
2022-09-01T02:46:32.940Z,11.11
2022-09-01T02:49:01.622Z,11.02
2022-09-01T02:51:29.791Z,10.94
2022-09-01T02:53:58.561Z,10.92
2022-09-01T02:56:27.550Z,10.92
2022-09-01T02:58:57.473Z,10.92
2022-09-01T03:01:29.426Z,10.92
2022-09-01T03:04:00.385Z,10.85
2022-09-01T03:06:29.315Z,10.86
2022-09-01T03:09:00.331Z,10.86
2022-09-01T03:11:30.536Z,10.82
2022-09-01T03:14:01.062Z,10.84
2022-09-01T03:16:31.524Z,10.79
2022-09-01T03:18:59.831Z,10.79
2022-09-01T03:21:27.955Z,10.79
2022-09-01T03:23:58.287Z,10.78
2022-09-01T03:26:27.046Z,10.75
2022-09-01T03:28:56.413Z,10.69
2022-09-01T03:31:27.722Z,10.72
2022-09-01T03:34:03.393Z,10.88
2022-09-01T03:36:36.600Z,10.94
2022-09-01T03:39:05.696Z,10.88
2022-09-01T03:41:35.056Z,10.86
2022-09-01T03:44:04.448Z,10.92
2022-09-01T03:46:37.185Z,10.89
2022-09-01T03:49:08.182Z,10.67
2022-09-01T03:51:39.401Z,10.65
2022-09-01T03:54:10.198Z,10.60
2022-09-01T03:56:41.573Z,10.85
2022-09-01T03:59:17.449Z,10.98
2022-09-01T04:01:49.788Z,10.84
2022-09-01T04:04:18.484Z,10.72
2022-09-01T04:06:47.478Z,10.71
2022-09-01T04:09:16.528Z,10.65
2022-09-01T04:11:47.212Z,10.60
2022-09-01T04:14:17.471Z,10.69
2022-09-01T04:17:07.174Z,10.65
2022-09-01T04:19:39.512Z,10.74
2022-09-01T04:22:13.602Z,10.57
2022-09-01T04:24:46.093Z,10.54
2022-09-01T04:27:18.243Z,10.53
2022-09-01T04:29:48.546Z,10.58
2022-09-01T04:32:21.706Z,10.69
2022-09-01T04:34:53.493Z,10.53
2022-09-01T04:37:23.701Z,10.47
2022-09-01T04:39:57.680Z,10.54
2022-09-01T04:42:29.767Z,10.60
2022-09-01T04:45:03.157Z,10.78
2022-09-01T04:47:46.741Z,10.72
2022-09-01T04:50:18.539Z,10.64
2022-09-01T04:53:14.292Z,10.71
2022-09-01T04:55:49.822Z,10.71
2022-09-01T04:58:22.266Z,10.81
2022-09-01T05:00:53.121Z,10.85
2022-09-01T05:03:24.936Z,10.98
2022-09-01T05:06:00.212Z,11.05
2022-09-01T05:08:29.186Z,10.84
2022-09-01T05:11:07.995Z,10.95
2022-09-01T05:13:43.566Z,10.98
2022-09-01T05:16:15.818Z,11.08
2022-09-01T05:18:51.092Z,11.22
2022-09-01T05:21:22.403Z,11.53
2022-09-01T05:23:53.035Z,11.71
2022-09-01T05:26:26.197Z,11.61
2022-09-01T05:28:59.302Z,11.74
2022-09-01T05:31:34.969Z,11.86
2022-09-01T05:34:05.357Z,11.96
2022-09-01T05:36:33.917Z,11.88
2022-09-01T05:39:04.906Z,12.00
2022-09-01T05:41:35.942Z,11.96
2022-09-01T05:44:08.122Z,12.09
2022-09-01T05:46:40.049Z,12.24
2022-09-01T05:49:13.564Z,12.24
2022-09-01T05:51:45.928Z,12.24
2022-09-01T05:54:25.571Z,12.37
2022-09-01T05:57:12.721Z,12.40
2022-09-01T05:59:48.949Z,12.50
2022-09-01T06:02:22.382Z,12.50
2022-09-01T06:04:57.229Z,12.50
2022-09-01T06:07:30.713Z,12.54
2022-09-01T06:10:02.658Z,12.67
2022-09-01T06:12:31.302Z,12.67
2022-09-01T06:15:00.201Z,12.75
2022-09-01T06:17:30.843Z,12.82
2022-09-01T06:20:10.721Z,12.95
2022-09-01T06:22:41.746Z,13.00
2022-09-01T06:25:11.626Z,12.96
2022-09-01T06:27:44.921Z,13.00
2022-09-01T06:30:23.027Z,13.12
2022-09-01T06:33:09.381Z,13.30
2022-09-01T06:35:44.770Z,13.28
2022-09-01T06:38:19.423Z,13.36
2022-09-01T06:40:51.077Z,13.51
2022-09-01T06:43:24.017Z,13.64
2022-09-01T06:45:54.608Z,13.69
2022-09-01T06:48:24.780Z,13.85
2022-09-01T06:51:21.034Z,13.92
2022-09-01T06:53:56.762Z,14.12
2022-09-01T06:56:32.159Z,14.20
2022-09-01T06:59:04.270Z,14.34
2022-09-01T07:01:32.833Z,14.73
2022-09-01T07:04:02.646Z,14.80
2022-09-01T07:07:00.480Z,14.97
2022-09-01T07:12:26.757Z,15.20
2022-09-01T07:17:50.191Z,15.26
2022-09-01T07:20:24.506Z,15.35
2022-09-01T07:23:04.832Z,15.41
2022-09-01T07:28:41.818Z,15.69
2022-09-01T07:39:55.295Z,16.07
2022-09-01T07:42:31.940Z,15.10
2022-09-01T07:45:58.915Z,16.06
2022-09-01T07:49:01.832Z,16.07
2022-09-01T07:51:37.711Z,16.37
2022-09-01T07:54:07.673Z,16.28
2022-09-01T07:56:40.109Z,16.35
2022-09-01T07:59:15.259Z,16.52
2022-09-01T08:02:18.387Z,16.63
2022-09-01T08:04:48.285Z,16.62
2022-09-01T08:07:17.122Z,16.41
2022-09-01T08:09:45.600Z,16.61
2022-09-01T08:12:17.666Z,16.94
2022-09-01T08:17:51.814Z,17.21
2022-09-01T08:20:22.725Z,17.31
2022-09-01T08:22:51.214Z,17.55
2022-09-01T08:25:25.097Z,17.76
2022-09-01T08:28:00.347Z,17.69
2022-09-01T08:30:30.086Z,17.66
2022-09-01T08:32:58.580Z,17.66
2022-09-01T08:35:29.512Z,17.63
2022-09-01T08:38:00.274Z,17.76
2022-09-01T08:40:29.172Z,17.75
2022-09-01T08:43:13.203Z,17.87
2022-09-01T08:45:49.082Z,18.07
2022-09-01T08:49:09.799Z,18.08
2022-09-01T08:51:20.067Z,18.27
2022-09-01T08:54:05.845Z,18.37
2022-09-01T08:56:37.535Z,18.25
2022-09-01T08:59:10.806Z,18.63
2022-09-01T09:02:16.617Z,18.59
2022-09-01T09:04:58.652Z,19.07
2022-09-01T09:07:39.113Z,19.25
2022-09-01T09:10:12.102Z,19.42
2022-09-01T09:12:54.343Z,19.35
2022-09-01T09:15:32.955Z,19.43
2022-09-01T09:18:20.203Z,19.35
2022-09-01T09:21:07.878Z,19.58
2022-09-01T09:23:40.879Z,19.71
2022-09-01T09:26:08.911Z,19.74
2022-09-01T09:28:40.192Z,20.03
2022-09-01T09:31:31.144Z,20.14
2022-09-01T09:34:00.005Z,20.35
2022-09-01T09:36:34.819Z,20.42
2022-09-01T09:39:13.331Z,20.50
2022-09-01T09:41:42.471Z,20.50
2022-09-01T09:44:23.149Z,20.26
2022-09-01T09:46:53.116Z,20.48
2022-09-01T09:49:36.038Z,20.77
2022-09-01T09:52:19.119Z,20.91
2022-09-01T09:55:03.847Z,20.88
2022-09-01T09:57:35.836Z,21.17
2022-09-01T10:00:09.677Z,21.26
2022-09-01T10:02:46.010Z,21.00
2022-09-01T10:05:29.868Z,21.02
2022-09-01T10:07:59.182Z,20.85
2022-09-01T10:10:31.010Z,21.31
2022-09-01T10:13:02.229Z,21.74
2022-09-01T10:15:33.508Z,21.45
2022-09-01T10:18:20.179Z,21.02
2022-09-01T10:20:57.344Z,21.39
2022-09-01T10:23:30.985Z,21.81
2022-09-01T10:26:05.909Z,21.95
2022-09-01T10:28:37.988Z,21.49
2022-09-01T10:31:09.103Z,20.88
2022-09-01T10:33:38.853Z,20.69
2022-09-01T10:36:10.157Z,20.84
2022-09-01T10:38:39.257Z,21.21
2022-09-01T10:41:14.713Z,20.91
2022-09-01T10:43:45.217Z,21.54
2022-09-01T10:46:50.863Z,22.36
2022-09-01T10:50:06.996Z,22.50
2022-09-01T10:53:01.445Z,22.94
2022-09-01T10:55:36.623Z,22.80
2022-09-01T11:01:11.491Z,22.71
2022-09-01T11:03:53.435Z,23.02
2022-09-01T11:09:46.036Z,23.56
2022-09-01T11:12:37.888Z,23.71
2022-09-01T11:15:27.769Z,23.19
2022-09-01T11:17:56.817Z,23.19
2022-09-01T11:20:27.973Z,23.25
2022-09-01T11:23:03.525Z,22.94
2022-09-01T11:25:43.825Z,23.42
2022-09-01T11:28:40.076Z,23.46
2022-09-01T11:31:34.216Z,23.45
2022-09-01T11:34:15.208Z,23.02
2022-09-01T11:37:00.460Z,22.84
2022-09-01T11:39:40.645Z,22.90
2022-09-01T11:42:14.551Z,22.90
2022-09-01T11:44:49.527Z,22.49
2022-09-01T11:47:21.025Z,22.81
2022-09-01T11:49:53.020Z,22.95
2022-09-01T11:52:23.584Z,22.95
2022-09-01T11:54:52.516Z,23.38
2022-09-01T11:57:28.232Z,23.39
2022-09-01T11:59:57.390Z,23.46
2022-09-01T12:02:30.437Z,23.41
2022-09-01T12:04:59.235Z,22.97
2022-09-01T12:07:38.966Z,22.83
2022-09-01T12:10:18.434Z,23.54
2022-09-01T12:12:48.731Z,23.74
2022-09-01T12:15:22.409Z,23.73
2022-09-01T12:17:51.296Z,24.11
2022-09-01T12:20:29.524Z,23.74
2022-09-01T12:22:59.921Z,23.54
2022-09-01T12:25:30.410Z,23.69
2022-09-01T12:28:01.289Z,24.01
2022-09-01T12:30:30.132Z,23.67
2022-09-01T12:35:47.600Z,24.05
2022-09-01T12:38:26.789Z,24.40
2022-09-01T12:40:56.752Z,24.84
2022-09-01T12:43:40.770Z,25.54
2022-09-01T12:46:10.896Z,25.02
2022-09-01T12:48:41.710Z,23.35
2022-09-01T12:51:23.832Z,26.18
2022-09-01T12:53:58.451Z,26.36
2022-09-01T12:56:32.069Z,27.47
2022-09-01T12:59:14.350Z,25.61
2022-09-01T13:01:45.038Z,26.09
2022-09-01T13:04:16.634Z,27.25
2022-09-01T13:06:44.669Z,27.27
2022-09-01T13:09:12.791Z,26.78
2022-09-01T13:14:31.678Z,25.66
2022-09-01T13:16:59.568Z,27.33
2022-09-01T13:19:30.568Z,27.40
2022-09-01T13:21:59.071Z,26.94
2022-09-01T13:24:30.429Z,28.23
2022-09-01T13:29:49.451Z,27.88
2022-09-01T13:32:20.487Z,27.37
2022-09-01T13:34:50.672Z,29.10
2022-09-01T13:37:19.983Z,27.98
2022-09-01T13:39:48.629Z,28.30
2022-09-01T13:42:17.314Z,29.08
2022-09-01T13:44:48.282Z,28.43
2022-09-01T13:47:35.408Z,28.47
2022-09-01T13:50:11.482Z,28.69
2022-09-01T13:52:41.784Z,28.67
2022-09-01T13:55:12.913Z,29.92
2022-09-01T13:57:41.398Z,29.49
2022-09-01T14:00:12.296Z,29.47
2022-09-01T14:02:50.022Z,29.63
2022-09-01T14:05:20.078Z,31.74
2022-09-01T14:07:48.877Z,30.53
2022-09-01T14:10:17.927Z,30.61
2022-09-01T14:12:46.949Z,30.22
2022-09-01T14:15:18.559Z,29.72
2022-09-01T14:17:52.064Z,30.10
2022-09-01T14:20:22.356Z,30.39
2022-09-01T14:22:51.429Z,29.49
2022-09-01T14:25:20.227Z,29.44
2022-09-01T14:27:49.693Z,28.50
2022-09-01T14:30:20.817Z,28.99
2022-09-01T14:32:50.680Z,29.71
2022-09-01T14:35:20.945Z,29.16
2022-09-01T14:37:49.078Z,29.72
2022-09-01T14:40:18.386Z,29.75
2022-09-01T14:42:49.291Z,30.63
2022-09-01T14:45:20.531Z,31.41
2022-09-01T14:47:53.837Z,30.30
2022-09-01T14:50:25.778Z,29.65
2022-09-01T14:52:57.406Z,29.85
2022-09-01T14:55:28.324Z,28.92
2022-09-01T14:57:57.165Z,29.43
2022-09-01T15:00:26.236Z,29.02
2022-09-01T15:02:57.117Z,30.20
2022-09-01T15:05:26.151Z,31.53
2022-09-01T15:07:55.286Z,29.38
2022-09-01T15:10:25.704Z,28.75
2022-09-01T15:12:56.116Z,30.22
2022-09-01T15:15:26.172Z,30.50
2022-09-01T15:17:54.852Z,26.11
2022-09-01T15:20:43.608Z,25.16
2022-09-01T15:23:12.545Z,23.97
2022-09-01T15:25:40.608Z,23.69
2022-09-01T15:28:09.348Z,25.27
2022-09-01T15:30:38.795Z,24.90
2022-09-01T15:33:14.701Z,26.99
2022-09-01T15:35:45.405Z,26.51
2022-09-01T15:38:17.590Z,26.54
2022-09-01T15:40:58.166Z,24.39
2022-09-01T15:43:28.030Z,24.11
2022-09-01T15:45:58.377Z,27.23
2022-09-01T15:48:29.770Z,28.24
2022-09-01T15:51:23.046Z,25.82
2022-09-01T15:53:52.174Z,25.39
2022-09-01T15:56:20.318Z,25.98
2022-09-01T15:59:00.911Z,27.06
2022-09-01T16:01:32.109Z,24.83
2022-09-01T16:04:01.229Z,23.47
2022-09-01T16:06:31.251Z,23.18
2022-09-01T16:08:59.808Z,26.15
2022-09-01T16:11:28.197Z,26.61
2022-09-01T16:13:57.028Z,27.36
2022-09-01T16:16:51.950Z,26.73
2022-09-01T16:19:32.002Z,27.16
2022-09-01T16:22:11.041Z,24.43
2022-09-01T16:24:41.894Z,24.70
2022-09-01T16:27:12.060Z,25.18
2022-09-01T16:29:45.539Z,24.95
2022-09-01T16:32:13.927Z,25.63
2022-09-01T16:34:46.944Z,26.11
2022-09-01T16:37:28.920Z,26.05
2022-09-01T16:40:09.336Z,26.15
2022-09-01T16:42:46.873Z,26.33
2022-09-01T16:45:26.279Z,25.64
2022-09-01T16:48:05.190Z,26.04
2022-09-01T16:50:41.248Z,24.98
2022-09-01T16:53:20.364Z,23.89
2022-09-01T16:56:00.064Z,23.36
2022-09-01T16:58:41.170Z,22.78
2022-09-01T17:01:24.280Z,22.47
2022-09-01T17:04:00.118Z,22.40
2022-09-01T17:06:32.219Z,22.15
2022-09-01T17:09:12.380Z,21.94
2022-09-01T17:11:49.451Z,21.95
2022-09-01T17:14:25.642Z,21.78
2022-09-01T17:16:55.942Z,21.67
2022-09-01T17:19:25.121Z,21.60
2022-09-01T17:22:02.053Z,21.47
2022-09-01T17:24:38.526Z,21.31
2022-09-01T17:27:11.013Z,21.25
2022-09-01T17:29:44.847Z,21.15
2022-09-01T17:32:30.795Z,21.05
2022-09-01T17:35:11.318Z,20.98
2022-09-01T17:37:47.882Z,20.90
2022-09-01T17:40:23.278Z,20.81
2022-09-01T17:42:58.165Z,20.70
2022-09-01T17:45:30.571Z,20.64
2022-09-01T17:48:09.203Z,20.42
2022-09-01T17:50:51.152Z,20.38
2022-09-01T17:53:29.561Z,20.26
2022-09-01T17:56:04.266Z,20.18
2022-09-01T17:58:46.564Z,20.07
2022-09-01T18:01:20.953Z,20.10
2022-09-01T18:04:15.427Z,20.03
2022-09-01T18:06:52.705Z,19.95
2022-09-01T18:09:25.645Z,19.90
2022-09-01T18:12:00.828Z,19.80
2022-09-01T18:14:36.095Z,19.70
2022-09-01T18:17:09.770Z,19.56
2022-09-01T18:19:41.062Z,19.46
2022-09-01T18:22:14.329Z,19.31
2022-09-01T18:24:52.244Z,19.21
2022-09-01T18:27:24.630Z,19.11
2022-09-01T18:29:57.925Z,18.97
2022-09-01T18:32:35.859Z,18.86
2022-09-01T18:35:26.272Z,18.76
2022-09-01T18:38:10.193Z,18.55
2022-09-01T18:40:49.923Z,18.48
2022-09-01T18:43:21.891Z,18.32
2022-09-01T18:45:57.068Z,18.34
2022-09-01T18:48:31.928Z,18.34
2022-09-01T18:51:08.166Z,18.31
2022-09-01T18:53:46.553Z,18.17
2022-09-01T18:56:21.742Z,18.07
2022-09-01T18:59:04.406Z,17.98
2022-09-01T19:01:35.034Z,17.93
2022-09-01T19:04:15.014Z,17.82
2022-09-01T19:06:53.069Z,17.75
2022-09-01T19:09:32.354Z,17.72
2022-09-01T19:12:14.015Z,17.61
2022-09-01T19:14:53.771Z,17.43
2022-09-01T19:17:37.603Z,17.20
2022-09-01T19:20:10.711Z,17.27
2022-09-01T19:22:44.594Z,17.21
2022-09-01T19:25:32.543Z,16.90
2022-09-01T19:28:05.740Z,16.77
2022-09-01T19:30:41.546Z,16.71
2022-09-01T19:33:13.746Z,16.65
2022-09-01T19:35:46.413Z,16.63
2022-09-01T19:38:20.144Z,16.56
2022-09-01T19:40:51.936Z,16.38
2022-09-01T19:43:21.396Z,16.45
2022-09-01T19:46:01.546Z,16.32
2022-09-01T19:48:36.906Z,16.18
2022-09-01T19:51:13.695Z,16.09
2022-09-01T19:53:50.145Z,15.93
2022-09-01T19:56:23.634Z,15.90
2022-09-01T19:59:00.338Z,15.96
2022-09-01T20:01:41.677Z,15.82
2022-09-01T20:04:21.897Z,15.92
2022-09-01T20:06:55.479Z,15.83
2022-09-01T20:09:31.147Z,15.87
2022-09-01T20:12:10.946Z,15.83
2022-09-01T20:14:56.368Z,15.57
2022-09-01T20:17:30.329Z,15.48
2022-09-01T20:20:05.107Z,15.52
2022-09-01T20:22:40.405Z,15.40
2022-09-01T20:25:11.551Z,15.51
2022-09-01T20:27:51.803Z,15.59
2022-09-01T20:30:22.766Z,15.45
2022-09-01T20:33:01.075Z,15.35
2022-09-01T20:35:39.073Z,15.48
2022-09-01T20:38:29.465Z,15.30
2022-09-01T20:41:00.295Z,15.49
2022-09-01T20:43:34.143Z,15.11
2022-09-01T20:46:02.306Z,14.97
2022-09-01T20:48:38.262Z,14.83
2022-09-01T20:51:12.030Z,14.93
2022-09-01T20:54:00.427Z,14.80
2022-09-01T20:56:36.880Z,14.89
2022-09-01T20:59:14.036Z,14.78
2022-09-01T21:01:50.112Z,14.54
2022-09-01T21:04:35.948Z,14.48
2022-09-01T21:07:10.386Z,14.61
2022-09-01T21:09:47.703Z,14.54
2022-09-01T21:12:26.919Z,14.31
2022-09-01T21:15:04.725Z,14.26
2022-09-01T21:17:42.146Z,14.33
2022-09-01T21:20:19.531Z,14.35
2022-09-01T21:22:47.610Z,14.24
2022-09-01T21:25:15.659Z,14.24
2022-09-01T21:27:52.126Z,14.18
2022-09-01T21:30:21.310Z,14.08
2022-09-01T21:32:49.762Z,14.31
2022-09-01T21:35:20.984Z,14.23
2022-09-01T21:37:49.154Z,14.03
2022-09-01T21:40:18.638Z,14.05
2022-09-01T21:42:49.644Z,13.96
2022-09-01T21:45:19.601Z,14.09
2022-09-01T21:47:48.425Z,14.10
2022-09-01T21:50:17.966Z,14.09
2022-09-01T21:52:47.443Z,13.98
2022-09-01T21:55:20.719Z,14.09
2022-09-01T21:57:51.052Z,14.03
2022-09-01T22:00:21.485Z,14.16
2022-09-01T22:02:49.877Z,14.16
2022-09-01T22:05:18.181Z,14.12
2022-09-01T22:07:48.621Z,14.17
2022-09-01T22:10:21.043Z,14.09
2022-09-01T22:12:50.855Z,14.12
2022-09-01T22:15:21.711Z,14.00
2022-09-01T22:17:50.554Z,14.00
2022-09-01T22:20:22.377Z,14.00
2022-09-01T22:22:52.083Z,14.00
2022-09-01T22:25:23.936Z,13.87
2022-09-01T22:27:52.408Z,13.92
2022-09-01T22:30:20.756Z,13.68
2022-09-01T22:32:48.817Z,13.58
2022-09-01T22:35:18.669Z,13.58
2022-09-01T22:37:47.065Z,13.66
2022-09-01T22:40:17.237Z,13.66
2022-09-01T22:42:46.223Z,13.34
2022-09-01T22:45:16.339Z,13.20
2022-09-01T22:47:44.546Z,13.27
2022-09-01T22:50:12.919Z,13.28
2022-09-01T22:52:41.017Z,13.19
2022-09-01T22:55:10.281Z,13.23
2022-09-01T22:57:39.792Z,13.02
2022-09-01T23:00:10.734Z,12.97
2022-09-01T23:02:38.969Z,12.82
2022-09-01T23:05:08.521Z,13.06
2022-09-01T23:07:39.652Z,13.00
2022-09-01T23:10:09.825Z,13.02
2022-09-01T23:12:39.464Z,12.92
2022-09-01T23:15:09.414Z,12.86
2022-09-01T23:17:37.953Z,12.89
2022-09-01T23:20:09.104Z,12.78
2022-09-01T23:22:37.162Z,12.71
2022-09-01T23:25:05.884Z,12.74
2022-09-01T23:27:34.136Z,12.64
2022-09-01T23:30:04.098Z,12.74
2022-09-01T23:32:35.475Z,12.81
2022-09-01T23:35:03.639Z,12.86
2022-09-01T23:37:31.752Z,12.84
2022-09-01T23:40:00.056Z,12.89
2022-09-01T23:42:28.213Z,12.84
2022-09-01T23:44:56.270Z,12.99
2022-09-01T23:47:25.711Z,13.00
2022-09-01T23:49:53.792Z,12.95
2022-09-01T23:52:21.886Z,12.93
2022-09-01T23:54:49.963Z,12.81
2022-09-01T23:57:19.100Z,12.91
2022-09-01T23:59:47.295Z,13.07
